sensor_id;sensor_type;location;lat;lon;timestamp;temperature;humidity
49441;DHT22;35317;51.978;6.296;2023-03-24T00:00:19;12.70;99.90
49441;DHT22;35317;51.978;6.296;2023-03-24T00:05:22;12.60;99.90
49441;DHT22;35317;51.978;6.296;2023-03-24T00:10:23;12.60;99.90
49441;DHT22;35317;51.978;6.296;2023-03-24T00:15:25;12.70;99.90
49441;DHT22;35317;51.978;6.296;2023-03-24T00:20:26;12.60;99.90
49441;DHT22;35317;51.978;6.296;2023-03-24T00:25:29;12.60;99.90
49441;DHT22;35317;51.978;6.296;2023-03-24T00:30:35;12.70;99.90
49441;DHT22;35317;51.978;6.296;2023-03-24T00:35:36;12.60;99.90
49441;DHT22;35317;51.978;6.296;2023-03-24T00:40:43;12.70;99.90
49441;DHT22;35317;51.978;6.296;2023-03-24T00:45:45;12.70;99.90
49441;DHT22;35317;51.978;6.296;2023-03-24T00:50:47;12.70;99.90
49441;DHT22;35317;51.978;6.296;2023-03-24T00:55:49;12.80;99.90
49441;DHT22;35317;51.978;6.296;2023-03-24T01:00:52;12.70;99.90
49441;DHT22;35317;51.978;6.296;2023-03-24T01:05:58;12.70;99.90
49441;DHT22;35317;51.978;6.296;2023-03-24T01:11:01;12.70;99.90
49441;DHT22;35317;51.978;6.296;2023-03-24T01:16:04;12.70;99.90
49441;DHT22;35317;51.978;6.296;2023-03-24T01:21:07;12.80;99.90
49441;DHT22;35317;51.978;6.296;2023-03-24T01:26:09;12.80;99.90
49441;DHT22;35317;51.978;6.296;2023-03-24T01:31:11;12.80;99.90
49441;DHT22;35317;51.978;6.296;2023-03-24T01:36:12;12.80;99.90
49441;DHT22;35317;51.978;6.296;2023-03-24T01:41:12;12.80;99.90
49441;DHT22;35317;51.978;6.296;2023-03-24T01:51:24;12.90;99.90
49441;DHT22;35317;51.978;6.296;2023-03-24T01:56:28;13.00;99.90
49441;DHT22;35317;51.978;6.296;2023-03-24T02:01:32;13.00;99.90
49441;DHT22;35317;51.978;6.296;2023-03-24T02:06:35;13.00;99.90
49441;DHT22;35317;51.978;6.296;2023-03-24T02:11:40;13.00;99.90
49441;DHT22;35317;51.978;6.296;2023-03-24T02:44:34;13.00;99.90
49441;DHT22;35317;51.978;6.296;2023-03-24T03:00:15;13.00;99.90
49441;DHT22;35317;51.978;6.296;2023-03-24T03:05:43;13.00;99.90
49441;DHT22;35317;51.978;6.296;2023-03-24T03:10:50;13.10;99.90
49441;DHT22;35317;51.978;6.296;2023-03-24T03:15:55;13.10;99.90
49441;DHT22;35317;51.978;6.296;2023-03-24T03:21:05;13.10;99.90
49441;DHT22;35317;51.978;6.296;2023-03-24T03:26:12;13.10;99.90
49441;DHT22;35317;51.978;6.296;2023-03-24T03:31:43;13.10;99.90
49441;DHT22;35317;51.978;6.296;2023-03-24T03:36:49;13.10;99.90
49441;DHT22;35317;51.978;6.296;2023-03-24T03:41:56;13.10;99.90
49441;DHT22;35317;51.978;6.296;2023-03-24T03:46:57;13.10;99.90
49441;DHT22;35317;51.978;6.296;2023-03-24T03:51:58;13.10;99.90
49441;DHT22;35317;51.978;6.296;2023-03-24T03:56:58;13.00;99.90
49441;DHT22;35317;51.978;6.296;2023-03-24T04:07:38;12.80;99.90
49441;DHT22;35317;51.978;6.296;2023-03-24T04:29:37;12.10;99.90
49441;DHT22;35317;51.978;6.296;2023-03-24T04:34:48;11.90;99.90
49441;DHT22;35317;51.978;6.296;2023-03-24T04:39:54;11.70;99.90
49441;DHT22;35317;51.978;6.296;2023-03-24T04:44:58;11.50;99.90
49441;DHT22;35317;51.978;6.296;2023-03-24T04:50:04;11.30;99.90
49441;DHT22;35317;51.978;6.296;2023-03-24T05:00:47;11.20;99.90
49441;DHT22;35317;51.978;6.296;2023-03-24T05:05:50;11.20;99.90
49441;DHT22;35317;51.978;6.296;2023-03-24T05:10:51;11.20;99.90
49441;DHT22;35317;51.978;6.296;2023-03-24T05:15:53;11.30;99.90
49441;DHT22;35317;51.978;6.296;2023-03-24T05:20:54;11.20;99.90
49441;DHT22;35317;51.978;6.296;2023-03-24T05:25:54;11.20;99.90
49441;DHT22;35317;51.978;6.296;2023-03-24T05:30:55;11.10;99.90
49441;DHT22;35317;51.978;6.296;2023-03-24T05:35:56;11.00;99.90
49441;DHT22;35317;51.978;6.296;2023-03-24T05:41:00;10.90;99.90
49441;DHT22;35317;51.978;6.296;2023-03-24T05:46:01;10.80;99.90
49441;DHT22;35317;51.978;6.296;2023-03-24T05:51:02;10.70;99.90
49441;DHT22;35317;51.978;6.296;2023-03-24T05:56:02;10.60;99.90
49441;DHT22;35317;51.978;6.296;2023-03-24T06:01:09;10.50;99.90
49441;DHT22;35317;51.978;6.296;2023-03-24T06:06:10;10.50;99.90
49441;DHT22;35317;51.978;6.296;2023-03-24T06:11:15;10.50;99.90
49441;DHT22;35317;51.978;6.296;2023-03-24T06:16:16;10.40;99.90
49441;DHT22;35317;51.978;6.296;2023-03-24T06:21:18;10.50;99.90
49441;DHT22;35317;51.978;6.296;2023-03-24T06:26:19;10.60;99.90
49441;DHT22;35317;51.978;6.296;2023-03-24T06:31:20;10.70;99.90
49441;DHT22;35317;51.978;6.296;2023-03-24T06:36:23;10.90;99.90
49441;DHT22;35317;51.978;6.296;2023-03-24T06:41:25;10.90;99.90
49441;DHT22;35317;51.978;6.296;2023-03-24T06:46:25;11.10;99.90
49441;DHT22;35317;51.978;6.296;2023-03-24T06:51:26;11.10;99.90
49441;DHT22;35317;51.978;6.296;2023-03-24T06:56:27;11.20;99.90
49441;DHT22;35317;51.978;6.296;2023-03-24T07:01:28;11.30;99.90
49441;DHT22;35317;51.978;6.296;2023-03-24T07:06:29;11.30;99.90
49441;DHT22;35317;51.978;6.296;2023-03-24T07:11:30;11.40;99.90
49441;DHT22;35317;51.978;6.296;2023-03-24T07:16:31;11.40;99.90
49441;DHT22;35317;51.978;6.296;2023-03-24T07:21:32;11.50;99.90
49441;DHT22;35317;51.978;6.296;2023-03-24T07:26:34;11.60;99.90
49441;DHT22;35317;51.978;6.296;2023-03-24T07:31:36;11.70;99.90
49441;DHT22;35317;51.978;6.296;2023-03-24T07:36:37;11.80;99.90
49441;DHT22;35317;51.978;6.296;2023-03-24T07:41:38;12.00;99.90
49441;DHT22;35317;51.978;6.296;2023-03-24T07:46:39;12.10;99.90
49441;DHT22;35317;51.978;6.296;2023-03-24T07:51:40;12.20;99.90
49441;DHT22;35317;51.978;6.296;2023-03-24T07:56:41;12.30;99.90
49441;DHT22;35317;51.978;6.296;2023-03-24T08:01:42;12.30;99.90
49441;DHT22;35317;51.978;6.296;2023-03-24T08:06:43;12.40;99.90
49441;DHT22;35317;51.978;6.296;2023-03-24T08:11:44;12.60;99.90
49441;DHT22;35317;51.978;6.296;2023-03-24T08:16:45;12.60;99.90
49441;DHT22;35317;51.978;6.296;2023-03-24T08:21:46;12.70;99.90
49441;DHT22;35317;51.978;6.296;2023-03-24T08:26:47;12.80;99.80
49441;DHT22;35317;51.978;6.296;2023-03-24T08:31:48;12.90;99.50
49441;DHT22;35317;51.978;6.296;2023-03-24T08:36:48;12.90;99.20
49441;DHT22;35317;51.978;6.296;2023-03-24T08:41:49;13.00;98.90
49441;DHT22;35317;51.978;6.296;2023-03-24T08:46:50;12.90;98.60
49441;DHT22;35317;51.978;6.296;2023-03-24T08:51:51;12.90;98.50
49441;DHT22;35317;51.978;6.296;2023-03-24T08:56:52;13.10;98.50
49441;DHT22;35317;51.978;6.296;2023-03-24T09:01:53;13.40;98.30
49441;DHT22;35317;51.978;6.296;2023-03-24T09:06:53;13.60;97.40
49441;DHT22;35317;51.978;6.296;2023-03-24T09:11:59;13.60;96.90
49441;DHT22;35317;51.978;6.296;2023-03-24T09:17:00;13.60;96.90
49441;DHT22;35317;51.978;6.296;2023-03-24T09:22:00;13.60;96.40
49441;DHT22;35317;51.978;6.296;2023-03-24T09:27:02;13.60;96.20
49441;DHT22;35317;51.978;6.296;2023-03-24T09:32:02;13.70;96.00
49441;DHT22;35317;51.978;6.296;2023-03-24T09:37:05;13.80;95.90
49441;DHT22;35317;51.978;6.296;2023-03-24T09:42:16;14.00;95.50
49441;DHT22;35317;51.978;6.296;2023-03-24T09:47:42;14.10;94.50
49441;DHT22;35317;51.978;6.296;2023-03-24T09:52:48;14.00;93.30
49441;DHT22;35317;51.978;6.296;2023-03-24T09:57:56;13.90;93.60
49441;DHT22;35317;51.978;6.296;2023-03-24T10:03:09;14.00;93.90
49441;DHT22;35317;51.978;6.296;2023-03-24T10:08:16;14.00;93.30
49441;DHT22;35317;51.978;6.296;2023-03-24T10:18:44;13.90;93.50
49441;DHT22;35317;51.978;6.296;2023-03-24T10:24:10;14.00;93.50
49441;DHT22;35317;51.978;6.296;2023-03-24T10:29:20;14.10;93.40
49441;DHT22;35317;51.978;6.296;2023-03-24T10:34:27;14.20;93.40
49441;DHT22;35317;51.978;6.296;2023-03-24T10:39:30;14.30;93.50
49441;DHT22;35317;51.978;6.296;2023-03-24T10:44:32;14.40;93.60
49441;DHT22;35317;51.978;6.296;2023-03-24T10:49:33;14.70;92.80
49441;DHT22;35317;51.978;6.296;2023-03-24T10:54:34;14.70;92.00
49441;DHT22;35317;51.978;6.296;2023-03-24T10:59:39;14.60;91.70
49441;DHT22;35317;51.978;6.296;2023-03-24T11:10:45;14.90;91.10
49441;DHT22;35317;51.978;6.296;2023-03-24T11:15:32;14.90;90.40
49441;DHT22;35317;51.978;6.296;2023-03-24T11:20:59;14.90;90.00
49441;DHT22;35317;51.978;6.296;2023-03-24T11:26:17;14.80;89.30
49441;DHT22;35317;51.978;6.296;2023-03-24T11:31:27;14.50;90.70
49441;DHT22;35317;51.978;6.296;2023-03-24T11:41:33;13.90;94.30
49441;DHT22;35317;51.978;6.296;2023-03-24T11:46:37;14.00;95.00
49441;DHT22;35317;51.978;6.296;2023-03-24T11:51:41;14.30;95.60
49441;DHT22;35317;51.978;6.296;2023-03-24T11:56:53;14.70;95.70
49441;DHT22;35317;51.978;6.296;2023-03-24T12:02:14;14.90;94.40
49441;DHT22;35317;51.978;6.296;2023-03-24T12:12:49;14.10;94.40
49441;DHT22;35317;51.978;6.296;2023-03-24T12:39:33;12.50;96.60
49441;DHT22;35317;51.978;6.296;2023-03-24T12:49:56;11.90;98.50
49441;DHT22;35317;51.978;6.296;2023-03-24T12:55:11;11.80;99.30
49441;DHT22;35317;51.978;6.296;2023-03-24T13:00:19;11.80;99.70
49441;DHT22;35317;51.978;6.296;2023-03-24T13:05:31;11.80;99.90
49441;DHT22;35317;51.978;6.296;2023-03-24T13:10:35;11.80;99.90
49441;DHT22;35317;51.978;6.296;2023-03-24T13:21:02;11.80;99.90
49441;DHT22;35317;51.978;6.296;2023-03-24T13:26:22;12.10;99.90
49441;DHT22;35317;51.978;6.296;2023-03-24T13:31:39;12.40;99.90
49441;DHT22;35317;51.978;6.296;2023-03-24T13:36:47;12.90;99.90
49441;DHT22;35317;51.978;6.296;2023-03-24T13:41:52;13.40;99.90
49441;DHT22;35317;51.978;6.296;2023-03-24T13:47:14;14.00;99.90
49441;DHT22;35317;51.978;6.296;2023-03-24T13:52:26;14.60;99.90
49441;DHT22;35317;51.978;6.296;2023-03-24T13:57:31;15.00;99.90
49441;DHT22;35317;51.978;6.296;2023-03-24T14:02:41;15.30;99.90
49441;DHT22;35317;51.978;6.296;2023-03-24T14:49:54;10.90;99.90
49441;DHT22;35317;51.978;6.296;2023-03-24T14:54:57;11.00;99.90
49441;DHT22;35317;51.978;6.296;2023-03-24T15:05:21;11.00;99.90
49441;DHT22;35317;51.978;6.296;2023-03-24T15:10:24;11.10;99.90
49441;DHT22;35317;51.978;6.296;2023-03-24T15:15:25;11.20;99.90
49441;DHT22;35317;51.978;6.296;2023-03-24T15:20:29;11.40;99.90
49441;DHT22;35317;51.978;6.296;2023-03-24T15:25:31;11.60;99.90
49441;DHT22;35317;51.978;6.296;2023-03-24T15:30:32;11.80;99.90
49441;DHT22;35317;51.978;6.296;2023-03-24T15:35:33;12.00;99.90
49441;DHT22;35317;51.978;6.296;2023-03-24T15:40:36;12.10;99.90
49441;DHT22;35317;51.978;6.296;2023-03-24T15:45:43;12.20;99.90
49441;DHT22;35317;51.978;6.296;2023-03-24T15:51:04;12.30;99.90
49441;DHT22;35317;51.978;6.296;2023-03-24T15:56:25;12.30;99.90
49441;DHT22;35317;51.978;6.296;2023-03-24T16:01:28;12.30;99.90
49441;DHT22;35317;51.978;6.296;2023-03-24T16:06:36;12.50;99.90
49441;DHT22;35317;51.978;6.296;2023-03-24T16:11:41;12.60;99.90
49441;DHT22;35317;51.978;6.296;2023-03-24T16:16:42;12.60;99.90
49441;DHT22;35317;51.978;6.296;2023-03-24T16:21:43;12.50;99.90
49441;DHT22;35317;51.978;6.296;2023-03-24T16:26:44;12.60;99.90
49441;DHT22;35317;51.978;6.296;2023-03-24T16:31:47;12.60;99.90
49441;DHT22;35317;51.978;6.296;2023-03-24T16:36:51;12.60;99.90
49441;DHT22;35317;51.978;6.296;2023-03-24T16:41:53;12.60;99.90
49441;DHT22;35317;51.978;6.296;2023-03-24T16:46:54;12.60;99.90
49441;DHT22;35317;51.978;6.296;2023-03-24T16:51:55;12.60;99.90
49441;DHT22;35317;51.978;6.296;2023-03-24T16:56:56;12.40;99.90
49441;DHT22;35317;51.978;6.296;2023-03-24T17:02:00;12.20;99.90
49441;DHT22;35317;51.978;6.296;2023-03-24T17:07:05;11.90;99.90
49441;DHT22;35317;51.978;6.296;2023-03-24T17:12:08;11.90;99.90
49441;DHT22;35317;51.978;6.296;2023-03-24T17:17:10;11.80;99.90
49441;DHT22;35317;51.978;6.296;2023-03-24T17:22:10;11.80;99.90
49441;DHT22;35317;51.978;6.296;2023-03-24T17:27:17;11.80;99.90
49441;DHT22;35317;51.978;6.296;2023-03-24T17:32:18;11.70;99.90
49441;DHT22;35317;51.978;6.296;2023-03-24T17:37:19;11.50;99.90
49441;DHT22;35317;51.978;6.296;2023-03-24T17:42:20;11.40;99.90
49441;DHT22;35317;51.978;6.296;2023-03-24T17:47:20;11.30;99.90
49441;DHT22;35317;51.978;6.296;2023-03-24T17:52:21;11.20;99.90
49441;DHT22;35317;51.978;6.296;2023-03-24T17:57:22;11.20;99.90
49441;DHT22;35317;51.978;6.296;2023-03-24T18:02:23;11.10;99.90
49441;DHT22;35317;51.978;6.296;2023-03-24T18:07:24;11.10;99.90
49441;DHT22;35317;51.978;6.296;2023-03-24T18:12:26;11.20;99.90
49441;DHT22;35317;51.978;6.296;2023-03-24T18:17:29;11.20;99.90
49441;DHT22;35317;51.978;6.296;2023-03-24T18:22:30;11.30;99.90
49441;DHT22;35317;51.978;6.296;2023-03-24T18:27:32;11.40;99.90
49441;DHT22;35317;51.978;6.296;2023-03-24T18:32:33;11.40;99.90
49441;DHT22;35317;51.978;6.296;2023-03-24T18:37:35;11.50;99.90
49441;DHT22;35317;51.978;6.296;2023-03-24T18:42:36;11.40;99.90
49441;DHT22;35317;51.978;6.296;2023-03-24T18:47:37;11.40;99.90
49441;DHT22;35317;51.978;6.296;2023-03-24T18:52:38;11.40;99.90
49441;DHT22;35317;51.978;6.296;2023-03-24T18:57:39;11.40;99.90
49441;DHT22;35317;51.978;6.296;2023-03-24T19:02:40;11.30;99.90
49441;DHT22;35317;51.978;6.296;2023-03-24T19:07:41;11.30;99.90
49441;DHT22;35317;51.978;6.296;2023-03-24T19:12:43;11.20;99.90
49441;DHT22;35317;51.978;6.296;2023-03-24T19:17:44;11.10;99.90
49441;DHT22;35317;51.978;6.296;2023-03-24T19:22:45;10.90;99.90
49441;DHT22;35317;51.978;6.296;2023-03-24T19:27:46;10.90;99.90
49441;DHT22;35317;51.978;6.296;2023-03-24T19:32:47;10.80;99.90
49441;DHT22;35317;51.978;6.296;2023-03-24T19:37:48;10.80;99.90
49441;DHT22;35317;51.978;6.296;2023-03-24T19:42:49;10.90;99.90
49441;DHT22;35317;51.978;6.296;2023-03-24T19:47:50;10.80;99.90
49441;DHT22;35317;51.978;6.296;2023-03-24T19:52:51;10.70;99.90
49441;DHT22;35317;51.978;6.296;2023-03-24T19:57:52;10.60;99.90
49441;DHT22;35317;51.978;6.296;2023-03-24T20:02:52;10.50;99.90
49441;DHT22;35317;51.978;6.296;2023-03-24T20:07:53;10.50;99.90
49441;DHT22;35317;51.978;6.296;2023-03-24T20:12:56;10.40;99.90
49441;DHT22;35317;51.978;6.296;2023-03-24T20:17:57;10.30;99.90
49441;DHT22;35317;51.978;6.296;2023-03-24T20:22:58;10.20;99.90
49441;DHT22;35317;51.978;6.296;2023-03-24T20:27:58;10.10;99.90
49441;DHT22;35317;51.978;6.296;2023-03-24T20:32:59;10.00;99.90
49441;DHT22;35317;51.978;6.296;2023-03-24T20:38:00;9.90;99.90
49441;DHT22;35317;51.978;6.296;2023-03-24T20:43:01;9.80;99.90
49441;DHT22;35317;51.978;6.296;2023-03-24T20:48:02;9.80;99.90
49441;DHT22;35317;51.978;6.296;2023-03-24T20:53:03;9.80;99.90
49441;DHT22;35317;51.978;6.296;2023-03-24T20:58:05;9.80;99.90
49441;DHT22;35317;51.978;6.296;2023-03-24T21:03:09;9.80;99.90
49441;DHT22;35317;51.978;6.296;2023-03-24T21:08:10;9.80;99.90
49441;DHT22;35317;51.978;6.296;2023-03-24T21:13:10;9.80;99.90
49441;DHT22;35317;51.978;6.296;2023-03-24T21:18:11;9.80;99.90
49441;DHT22;35317;51.978;6.296;2023-03-24T21:23:12;9.70;99.90
49441;DHT22;35317;51.978;6.296;2023-03-24T21:28:13;9.80;99.90
49441;DHT22;35317;51.978;6.296;2023-03-24T21:33:19;9.80;99.90
49441;DHT22;35317;51.978;6.296;2023-03-24T21:38:20;9.80;99.90
49441;DHT22;35317;51.978;6.296;2023-03-24T21:43:21;9.80;99.90
49441;DHT22;35317;51.978;6.296;2023-03-24T21:48:23;9.80;99.90
49441;DHT22;35317;51.978;6.296;2023-03-24T21:53:25;9.80;99.90
49441;DHT22;35317;51.978;6.296;2023-03-24T21:58:26;9.80;99.90
49441;DHT22;35317;51.978;6.296;2023-03-24T22:03:28;9.90;99.90
49441;DHT22;35317;51.978;6.296;2023-03-24T22:08:30;9.80;99.90
49441;DHT22;35317;51.978;6.296;2023-03-24T22:13:31;9.80;99.90
49441;DHT22;35317;51.978;6.296;2023-03-24T22:18:33;9.80;99.90
49441;DHT22;35317;51.978;6.296;2023-03-24T22:23:36;9.80;99.90
49441;DHT22;35317;51.978;6.296;2023-03-24T22:28:39;9.90;99.90
49441;DHT22;35317;51.978;6.296;2023-03-24T22:33:40;9.90;99.90
49441;DHT22;35317;51.978;6.296;2023-03-24T22:38:41;10.00;99.90
49441;DHT22;35317;51.978;6.296;2023-03-24T22:43:42;10.10;99.90
49441;DHT22;35317;51.978;6.296;2023-03-24T22:48:43;10.10;99.90
49441;DHT22;35317;51.978;6.296;2023-03-24T22:53:44;10.10;99.90
49441;DHT22;35317;51.978;6.296;2023-03-24T22:58:45;10.10;99.90
49441;DHT22;35317;51.978;6.296;2023-03-24T23:03:46;10.10;99.90
49441;DHT22;35317;51.978;6.296;2023-03-24T23:08:46;10.10;99.90
49441;DHT22;35317;51.978;6.296;2023-03-24T23:14:09;10.10;99.90
49441;DHT22;35317;51.978;6.296;2023-03-24T23:19:10;10.10;99.90
49441;DHT22;35317;51.978;6.296;2023-03-24T23:24:31;10.10;99.90
49441;DHT22;35317;51.978;6.296;2023-03-24T23:29:36;10.20;99.90
49441;DHT22;35317;51.978;6.296;2023-03-24T23:34:38;10.20;99.90
49441;DHT22;35317;51.978;6.296;2023-03-24T23:40:04;10.20;99.90
49441;DHT22;35317;51.978;6.296;2023-03-24T23:45:16;10.20;99.90
49441;DHT22;35317;51.978;6.296;2023-03-24T23:50:19;10.20;99.90
49441;DHT22;35317;51.978;6.296;2023-03-24T23:55:20;10.10;99.90
